sensor_id;sensor_type;location;lat;lon;timestamp;temperature;humidity
48264;DHT22;34086;51.076;13.722;2023-10-13T00:00:37;16.00;99.90
48264;DHT22;34086;51.076;13.722;2023-10-13T00:01:38;16.00;99.90
48264;DHT22;34086;51.076;13.722;2023-10-13T00:02:38;16.00;99.90
48264;DHT22;34086;51.076;13.722;2023-10-13T00:03:40;16.00;99.90
48264;DHT22;34086;51.076;13.722;2023-10-13T00:04:40;16.00;99.90
48264;DHT22;34086;51.076;13.722;2023-10-13T00:05:43;16.00;99.90
48264;DHT22;34086;51.076;13.722;2023-10-13T00:06:44;16.00;99.90
48264;DHT22;34086;51.076;13.722;2023-10-13T00:07:45;16.00;99.90
48264;DHT22;34086;51.076;13.722;2023-10-13T00:08:47;16.00;99.90
48264;DHT22;34086;51.076;13.722;2023-10-13T00:09:47;16.00;99.90
48264;DHT22;34086;51.076;13.722;2023-10-13T00:10:48;16.00;99.90
48264;DHT22;34086;51.076;13.722;2023-10-13T00:11:48;16.10;99.90
48264;DHT22;34086;51.076;13.722;2023-10-13T00:12:49;16.10;99.90
48264;DHT22;34086;51.076;13.722;2023-10-13T00:13:53;16.10;99.90
48264;DHT22;34086;51.076;13.722;2023-10-13T00:14:54;16.10;99.90
48264;DHT22;34086;51.076;13.722;2023-10-13T00:15:55;16.10;99.90
48264;DHT22;34086;51.076;13.722;2023-10-13T00:16:57;16.10;99.90
48264;DHT22;34086;51.076;13.722;2023-10-13T00:18:07;16.10;99.90
48264;DHT22;34086;51.076;13.722;2023-10-13T00:19:12;16.10;99.90
48264;DHT22;34086;51.076;13.722;2023-10-13T00:20:14;16.10;99.90
48264;DHT22;34086;51.076;13.722;2023-10-13T00:21:39;16.10;99.90
48264;DHT22;34086;51.076;13.722;2023-10-13T00:22:42;16.10;99.90
48264;DHT22;34086;51.076;13.722;2023-10-13T00:23:44;16.10;99.90
48264;DHT22;34086;51.076;13.722;2023-10-13T00:24:54;16.10;99.90
48264;DHT22;34086;51.076;13.722;2023-10-13T00:25:59;16.10;99.90
48264;DHT22;34086;51.076;13.722;2023-10-13T00:27:02;16.10;99.90
48264;DHT22;34086;51.076;13.722;2023-10-13T00:28:06;16.10;99.90
48264;DHT22;34086;51.076;13.722;2023-10-13T00:29:09;16.10;99.90
48264;DHT22;34086;51.076;13.722;2023-10-13T00:30:17;16.10;99.90
48264;DHT22;34086;51.076;13.722;2023-10-13T00:31:17;16.10;99.90
48264;DHT22;34086;51.076;13.722;2023-10-13T00:32:18;16.10;99.90
48264;DHT22;34086;51.076;13.722;2023-10-13T00:33:27;16.10;99.90
48264;DHT22;34086;51.076;13.722;2023-10-13T00:34:28;16.10;99.90
48264;DHT22;34086;51.076;13.722;2023-10-13T00:35:29;16.10;99.90
48264;DHT22;34086;51.076;13.722;2023-10-13T00:36:42;16.10;99.90
48264;DHT22;34086;51.076;13.722;2023-10-13T00:37:49;16.10;99.90
48264;DHT22;34086;51.076;13.722;2023-10-13T00:38:53;16.10;99.90
48264;DHT22;34086;51.076;13.722;2023-10-13T00:39:56;16.10;99.90
48264;DHT22;34086;51.076;13.722;2023-10-13T00:40:58;16.10;99.90
48264;DHT22;34086;51.076;13.722;2023-10-13T00:42:15;16.10;99.90
48264;DHT22;34086;51.076;13.722;2023-10-13T00:43:22;16.20;99.90
48264;DHT22;34086;51.076;13.722;2023-10-13T00:44:22;16.10;99.90
48264;DHT22;34086;51.076;13.722;2023-10-13T00:45:38;16.10;99.90
48264;DHT22;34086;51.076;13.722;2023-10-13T00:46:41;16.10;99.90
48264;DHT22;34086;51.076;13.722;2023-10-13T00:47:45;16.10;99.90
48264;DHT22;34086;51.076;13.722;2023-10-13T00:48:57;16.10;99.90
48264;DHT22;34086;51.076;13.722;2023-10-13T00:49:58;16.10;99.90
48264;DHT22;34086;51.076;13.722;2023-10-13T00:51:04;16.10;99.90
48264;DHT22;34086;51.076;13.722;2023-10-13T00:52:08;16.10;99.90
48264;DHT22;34086;51.076;13.722;2023-10-13T00:53:10;16.10;99.90
48264;DHT22;34086;51.076;13.722;2023-10-13T00:54:13;16.10;99.90
48264;DHT22;34086;51.076;13.722;2023-10-13T00:55:14;16.10;99.90
48264;DHT22;34086;51.076;13.722;2023-10-13T00:56:15;16.10;99.90
48264;DHT22;34086;51.076;13.722;2023-10-13T00:57:19;16.10;99.90
48264;DHT22;34086;51.076;13.722;2023-10-13T00:58:36;16.10;99.90
48264;DHT22;34086;51.076;13.722;2023-10-13T00:59:39;16.10;99.90
48264;DHT22;34086;51.076;13.722;2023-10-13T01:00:44;16.10;99.90
48264;DHT22;34086;51.076;13.722;2023-10-13T01:01:47;16.10;99.90
48264;DHT22;34086;51.076;13.722;2023-10-13T01:02:55;16.10;99.90
48264;DHT22;34086;51.076;13.722;2023-10-13T01:04:06;16.10;99.90
48264;DHT22;34086;51.076;13.722;2023-10-13T01:05:09;16.10;99.90
48264;DHT22;34086;51.076;13.722;2023-10-13T01:06:10;16.10;99.90
48264;DHT22;34086;51.076;13.722;2023-10-13T01:07:12;16.10;99.90
48264;DHT22;34086;51.076;13.722;2023-10-13T01:08:13;16.10;99.90
48264;DHT22;34086;51.076;13.722;2023-10-13T01:09:15;16.10;99.90
48264;DHT22;34086;51.076;13.722;2023-10-13T01:10:19;16.10;99.90
48264;DHT22;34086;51.076;13.722;2023-10-13T01:11:20;16.10;99.90
48264;DHT22;34086;51.076;13.722;2023-10-13T01:12:24;16.10;99.90
48264;DHT22;34086;51.076;13.722;2023-10-13T01:13:25;16.10;99.90
48264;DHT22;34086;51.076;13.722;2023-10-13T01:14:27;16.10;99.90
48264;DHT22;34086;51.076;13.722;2023-10-13T01:15:29;16.10;99.90
48264;DHT22;34086;51.076;13.722;2023-10-13T01:16:32;16.10;99.90
48264;DHT22;34086;51.076;13.722;2023-10-13T01:17:33;16.10;99.90
48264;DHT22;34086;51.076;13.722;2023-10-13T01:18:34;16.10;99.90
48264;DHT22;34086;51.076;13.722;2023-10-13T01:19:47;16.10;99.90
48264;DHT22;34086;51.076;13.722;2023-10-13T01:20:49;16.10;99.90
48264;DHT22;34086;51.076;13.722;2023-10-13T01:21:53;16.10;99.90
48264;DHT22;34086;51.076;13.722;2023-10-13T01:23:09;16.10;99.90
48264;DHT22;34086;51.076;13.722;2023-10-13T01:24:18;16.10;99.90
48264;DHT22;34086;51.076;13.722;2023-10-13T01:25:19;16.10;99.90
48264;DHT22;34086;51.076;13.722;2023-10-13T01:26:20;16.10;99.90
48264;DHT22;34086;51.076;13.722;2023-10-13T01:27:26;16.10;99.90
48264;DHT22;34086;51.076;13.722;2023-10-13T01:28:27;16.10;99.90
48264;DHT22;34086;51.076;13.722;2023-10-13T01:29:28;16.10;99.90
48264;DHT22;34086;51.076;13.722;2023-10-13T01:30:29;16.10;99.90
48264;DHT22;34086;51.076;13.722;2023-10-13T01:31:30;16.10;99.90
48264;DHT22;34086;51.076;13.722;2023-10-13T01:32:37;16.10;99.90
48264;DHT22;34086;51.076;13.722;2023-10-13T01:33:41;16.10;99.90
48264;DHT22;34086;51.076;13.722;2023-10-13T01:34:41;16.10;99.90
48264;DHT22;34086;51.076;13.722;2023-10-13T01:35:46;16.10;99.90
48264;DHT22;34086;51.076;13.722;2023-10-13T01:36:55;16.10;99.90
48264;DHT22;34086;51.076;13.722;2023-10-13T01:37:56;16.10;99.90
48264;DHT22;34086;51.076;13.722;2023-10-13T01:38:56;16.10;99.90
48264;DHT22;34086;51.076;13.722;2023-10-13T01:40:01;16.10;99.90
48264;DHT22;34086;51.076;13.722;2023-10-13T01:41:05;16.10;99.90
48264;DHT22;34086;51.076;13.722;2023-10-13T01:42:06;16.10;99.90
48264;DHT22;34086;51.076;13.722;2023-10-13T01:43:06;16.10;99.90
48264;DHT22;34086;51.076;13.722;2023-10-13T01:44:07;16.10;99.90
48264;DHT22;34086;51.076;13.722;2023-10-13T01:45:08;16.10;99.90
48264;DHT22;34086;51.076;13.722;2023-10-13T01:46:10;16.10;99.90
48264;DHT22;34086;51.076;13.722;2023-10-13T01:47:13;16.10;99.90
48264;DHT22;34086;51.076;13.722;2023-10-13T01:48:16;16.10;99.90
48264;DHT22;34086;51.076;13.722;2023-10-13T01:49:18;16.10;99.90
48264;DHT22;34086;51.076;13.722;2023-10-13T01:50:19;16.10;99.90
48264;DHT22;34086;51.076;13.722;2023-10-13T01:51:28;16.10;99.90
48264;DHT22;34086;51.076;13.722;2023-10-13T01:52:29;16.10;99.90
48264;DHT22;34086;51.076;13.722;2023-10-13T01:53:30;16.10;99.90
48264;DHT22;34086;51.076;13.722;2023-10-13T01:54:31;16.10;99.90
48264;DHT22;34086;51.076;13.722;2023-10-13T01:55:33;16.10;99.90
48264;DHT22;34086;51.076;13.722;2023-10-13T01:56:43;16.10;99.90
48264;DHT22;34086;51.076;13.722;2023-10-13T01:57:43;16.10;99.90
48264;DHT22;34086;51.076;13.722;2023-10-13T01:58:48;16.10;99.90
48264;DHT22;34086;51.076;13.722;2023-10-13T01:59:49;16.10;99.90
48264;DHT22;34086;51.076;13.722;2023-10-13T02:00:49;16.20;99.90
48264;DHT22;34086;51.076;13.722;2023-10-13T02:01:50;16.20;99.90
48264;DHT22;34086;51.076;13.722;2023-10-13T02:02:52;16.20;99.90
48264;DHT22;34086;51.076;13.722;2023-10-13T02:03:55;16.20;99.90
48264;DHT22;34086;51.076;13.722;2023-10-13T02:05:02;16.10;99.90
48264;DHT22;34086;51.076;13.722;2023-10-13T02:06:03;16.10;99.90
48264;DHT22;34086;51.076;13.722;2023-10-13T02:07:06;16.10;99.90
48264;DHT22;34086;51.076;13.722;2023-10-13T02:08:10;16.10;99.90
48264;DHT22;34086;51.076;13.722;2023-10-13T02:09:18;16.10;99.90
48264;DHT22;34086;51.076;13.722;2023-10-13T02:10:27;16.10;99.90
48264;DHT22;34086;51.076;13.722;2023-10-13T02:11:30;16.10;99.90
48264;DHT22;34086;51.076;13.722;2023-10-13T02:12:32;16.10;99.90
48264;DHT22;34086;51.076;13.722;2023-10-13T02:13:45;16.10;99.90
48264;DHT22;34086;51.076;13.722;2023-10-13T02:14:51;16.00;99.90
48264;DHT22;34086;51.076;13.722;2023-10-13T02:15:56;16.00;99.90
48264;DHT22;34086;51.076;13.722;2023-10-13T02:16:57;16.00;99.90
48264;DHT22;34086;51.076;13.722;2023-10-13T02:18:18;16.00;99.90
48264;DHT22;34086;51.076;13.722;2023-10-13T02:19:26;16.00;99.90
48264;DHT22;34086;51.076;13.722;2023-10-13T02:20:28;16.00;99.90
48264;DHT22;34086;51.076;13.722;2023-10-13T02:21:35;16.00;99.90
48264;DHT22;34086;51.076;13.722;2023-10-13T02:22:45;16.00;99.90
48264;DHT22;34086;51.076;13.722;2023-10-13T02:23:51;16.00;99.90
48264;DHT22;34086;51.076;13.722;2023-10-13T02:25:04;16.00;99.90
48264;DHT22;34086;51.076;13.722;2023-10-13T02:26:06;16.00;99.90
48264;DHT22;34086;51.076;13.722;2023-10-13T02:27:15;16.00;99.90
48264;DHT22;34086;51.076;13.722;2023-10-13T02:28:16;16.00;99.90
48264;DHT22;34086;51.076;13.722;2023-10-13T02:29:22;16.00;99.90
48264;DHT22;34086;51.076;13.722;2023-10-13T02:30:22;16.10;99.90
48264;DHT22;34086;51.076;13.722;2023-10-13T02:31:27;16.10;99.90
48264;DHT22;34086;51.076;13.722;2023-10-13T02:32:28;16.10;99.90
48264;DHT22;34086;51.076;13.722;2023-10-13T02:33:30;16.10;99.90
48264;DHT22;34086;51.076;13.722;2023-10-13T02:34:32;16.10;99.90
48264;DHT22;34086;51.076;13.722;2023-10-13T02:35:32;16.10;99.90
48264;DHT22;34086;51.076;13.722;2023-10-13T02:36:35;16.10;99.90
48264;DHT22;34086;51.076;13.722;2023-10-13T02:37:36;16.10;99.90
48264;DHT22;34086;51.076;13.722;2023-10-13T02:38:37;16.10;99.90
48264;DHT22;34086;51.076;13.722;2023-10-13T02:39:41;16.10;99.90
48264;DHT22;34086;51.076;13.722;2023-10-13T02:40:42;16.10;99.90
48264;DHT22;34086;51.076;13.722;2023-10-13T02:41:42;16.10;99.90
48264;DHT22;34086;51.076;13.722;2023-10-13T02:42:48;16.10;99.90
48264;DHT22;34086;51.076;13.722;2023-10-13T02:43:48;16.10;99.90
48264;DHT22;34086;51.076;13.722;2023-10-13T02:44:50;16.20;99.90
48264;DHT22;34086;51.076;13.722;2023-10-13T02:45:54;16.20;99.90
48264;DHT22;34086;51.076;13.722;2023-10-13T02:46:58;16.20;99.90
48264;DHT22;34086;51.076;13.722;2023-10-13T02:47:59;16.20;99.90
48264;DHT22;34086;51.076;13.722;2023-10-13T02:49:17;16.20;99.90
48264;DHT22;34086;51.076;13.722;2023-10-13T02:50:19;16.20;99.90
48264;DHT22;34086;51.076;13.722;2023-10-13T02:51:24;16.20;99.90
48264;DHT22;34086;51.076;13.722;2023-10-13T02:52:51;16.20;99.90
48264;DHT22;34086;51.076;13.722;2023-10-13T02:53:53;16.20;99.90
48264;DHT22;34086;51.076;13.722;2023-10-13T02:54:54;16.20;99.90
48264;DHT22;34086;51.076;13.722;2023-10-13T02:55:55;16.20;99.90
48264;DHT22;34086;51.076;13.722;2023-10-13T02:56:57;16.30;99.90
48264;DHT22;34086;51.076;13.722;2023-10-13T02:57:59;16.30;99.90
48264;DHT22;34086;51.076;13.722;2023-10-13T02:59:00;16.30;99.90
48264;DHT22;34086;51.076;13.722;2023-10-13T03:00:05;16.30;99.90
48264;DHT22;34086;51.076;13.722;2023-10-13T03:01:12;16.30;99.90
48264;DHT22;34086;51.076;13.722;2023-10-13T03:02:19;16.30;99.90
48264;DHT22;34086;51.076;13.722;2023-10-13T03:03:30;16.30;99.90
48264;DHT22;34086;51.076;13.722;2023-10-13T03:04:30;16.30;99.90
48264;DHT22;34086;51.076;13.722;2023-10-13T03:05:36;16.30;99.90
48264;DHT22;34086;51.076;13.722;2023-10-13T03:06:39;16.30;99.90
48264;DHT22;34086;51.076;13.722;2023-10-13T03:07:42;16.30;99.90
48264;DHT22;34086;51.076;13.722;2023-10-13T03:08:43;16.30;99.90
48264;DHT22;34086;51.076;13.722;2023-10-13T03:09:44;16.30;99.90
48264;DHT22;34086;51.076;13.722;2023-10-13T03:10:57;16.30;99.90
48264;DHT22;34086;51.076;13.722;2023-10-13T03:11:58;16.30;99.90
48264;DHT22;34086;51.076;13.722;2023-10-13T03:12:59;16.20;99.90
48264;DHT22;34086;51.076;13.722;2023-10-13T03:14:00;16.30;99.90
48264;DHT22;34086;51.076;13.722;2023-10-13T03:15:07;16.20;99.90
48264;DHT22;34086;51.076;13.722;2023-10-13T03:16:12;16.20;99.90
48264;DHT22;34086;51.076;13.722;2023-10-13T03:17:16;16.20;99.90
48264;DHT22;34086;51.076;13.722;2023-10-13T03:18:22;16.20;99.90
48264;DHT22;34086;51.076;13.722;2023-10-13T03:19:23;16.20;99.90
48264;DHT22;34086;51.076;13.722;2023-10-13T03:20:33;16.20;99.90
48264;DHT22;34086;51.076;13.722;2023-10-13T03:21:34;16.30;99.90
48264;DHT22;34086;51.076;13.722;2023-10-13T03:22:37;16.20;99.90
48264;DHT22;34086;51.076;13.722;2023-10-13T03:23:37;16.20;99.90
48264;DHT22;34086;51.076;13.722;2023-10-13T03:24:46;16.20;99.90
48264;DHT22;34086;51.076;13.722;2023-10-13T03:25:47;16.20;99.90
48264;DHT22;34086;51.076;13.722;2023-10-13T03:26:55;16.20;99.90
48264;DHT22;34086;51.076;13.722;2023-10-13T03:27:56;16.20;99.90
48264;DHT22;34086;51.076;13.722;2023-10-13T03:28:57;16.30;99.90
48264;DHT22;34086;51.076;13.722;2023-10-13T03:29:58;16.20;99.90
48264;DHT22;34086;51.076;13.722;2023-10-13T03:31:01;16.20;99.90
48264;DHT22;34086;51.076;13.722;2023-10-13T03:32:03;16.30;99.90
48264;DHT22;34086;51.076;13.722;2023-10-13T03:33:09;16.20;99.90
48264;DHT22;34086;51.076;13.722;2023-10-13T03:34:14;16.30;99.90
48264;DHT22;34086;51.076;13.722;2023-10-13T03:35:15;16.30;99.90
48264;DHT22;34086;51.076;13.722;2023-10-13T03:36:26;16.30;99.90
48264;DHT22;34086;51.076;13.722;2023-10-13T03:37:45;16.30;99.90
48264;DHT22;34086;51.076;13.722;2023-10-13T03:38:46;16.30;99.90
48264;DHT22;34086;51.076;13.722;2023-10-13T03:39:55;16.30;99.90
48264;DHT22;34086;51.076;13.722;2023-10-13T03:40:56;16.30;99.90
48264;DHT22;34086;51.076;13.722;2023-10-13T03:41:57;16.30;99.90
48264;DHT22;34086;51.076;13.722;2023-10-13T03:42:59;16.30;99.90
48264;DHT22;34086;51.076;13.722;2023-10-13T03:43:59;16.30;99.90
48264;DHT22;34086;51.076;13.722;2023-10-13T03:45:13;16.30;99.90
48264;DHT22;34086;51.076;13.722;2023-10-13T03:46:15;16.30;99.90
48264;DHT22;34086;51.076;13.722;2023-10-13T03:47:18;16.30;99.90
48264;DHT22;34086;51.076;13.722;2023-10-13T03:48:19;16.40;99.90
48264;DHT22;34086;51.076;13.722;2023-10-13T03:49:26;16.40;99.90
48264;DHT22;34086;51.076;13.722;2023-10-13T03:50:29;16.40;99.90
48264;DHT22;34086;51.076;13.722;2023-10-13T03:51:32;16.40;99.90
48264;DHT22;34086;51.076;13.722;2023-10-13T03:52:33;16.40;99.90
48264;DHT22;34086;51.076;13.722;2023-10-13T03:53:38;16.40;99.90
48264;DHT22;34086;51.076;13.722;2023-10-13T03:54:53;16.30;99.90
48264;DHT22;34086;51.076;13.722;2023-10-13T03:55:54;16.30;99.90
48264;DHT22;34086;51.076;13.722;2023-10-13T03:57:08;16.40;99.90
48264;DHT22;34086;51.076;13.722;2023-10-13T03:58:11;16.40;99.90
48264;DHT22;34086;51.076;13.722;2023-10-13T03:59:13;16.30;99.90
48264;DHT22;34086;51.076;13.722;2023-10-13T04:00:16;16.30;99.90
48264;DHT22;34086;51.076;13.722;2023-10-13T04:01:24;16.30;99.90
48264;DHT22;34086;51.076;13.722;2023-10-13T04:02:31;16.30;99.90
48264;DHT22;34086;51.076;13.722;2023-10-13T04:03:32;16.30;99.90
48264;DHT22;34086;51.076;13.722;2023-10-13T04:04:36;16.30;99.90
48264;DHT22;34086;51.076;13.722;2023-10-13T04:05:48;16.30;99.90
48264;DHT22;34086;51.076;13.722;2023-10-13T04:07:05;16.20;99.90
48264;DHT22;34086;51.076;13.722;2023-10-13T04:08:06;16.20;99.90
48264;DHT22;34086;51.076;13.722;2023-10-13T04:09:26;16.20;99.90
48264;DHT22;34086;51.076;13.722;2023-10-13T04:10:29;16.20;99.90
48264;DHT22;34086;51.076;13.722;2023-10-13T04:11:42;16.30;99.90
48264;DHT22;34086;51.076;13.722;2023-10-13T04:13:01;16.30;99.90
48264;DHT22;34086;51.076;13.722;2023-10-13T04:14:14;16.30;99.90
48264;DHT22;34086;51.076;13.722;2023-10-13T04:15:24;16.30;99.90
48264;DHT22;34086;51.076;13.722;2023-10-13T04:16:27;16.30;99.90
48264;DHT22;34086;51.076;13.722;2023-10-13T04:17:28;16.30;99.90
48264;DHT22;34086;51.076;13.722;2023-10-13T04:18:30;16.30;99.90
48264;DHT22;34086;51.076;13.722;2023-10-13T04:19:50;16.30;99.90
48264;DHT22;34086;51.076;13.722;2023-10-13T04:21:06;16.30;99.90
48264;DHT22;34086;51.076;13.722;2023-10-13T04:22:29;16.30;99.90
48264;DHT22;34086;51.076;13.722;2023-10-13T04:23:46;16.30;99.90
48264;DHT22;34086;51.076;13.722;2023-10-13T04:25:07;16.40;99.90
48264;DHT22;34086;51.076;13.722;2023-10-13T04:26:27;16.40;99.90
48264;DHT22;34086;51.076;13.722;2023-10-13T04:27:48;16.40;99.90
48264;DHT22;34086;51.076;13.722;2023-10-13T04:29:14;16.30;99.90
48264;DHT22;34086;51.076;13.722;2023-10-13T04:30:28;16.30;99.90
48264;DHT22;34086;51.076;13.722;2023-10-13T04:31:39;16.30;99.90
48264;DHT22;34086;51.076;13.722;2023-10-13T04:32:46;16.30;99.90
48264;DHT22;34086;51.076;13.722;2023-10-13T04:34:07;16.30;99.90
48264;DHT22;34086;51.076;13.722;2023-10-13T04:35:16;16.30;99.90
48264;DHT22;34086;51.076;13.722;2023-10-13T04:36:17;16.30;99.90
48264;DHT22;34086;51.076;13.722;2023-10-13T04:37:22;16.30;99.90
48264;DHT22;34086;51.076;13.722;2023-10-13T04:38:29;16.30;99.90
48264;DHT22;34086;51.076;13.722;2023-10-13T04:39:34;16.30;99.90
48264;DHT22;34086;51.076;13.722;2023-10-13T04:40:41;16.30;99.90
48264;DHT22;34086;51.076;13.722;2023-10-13T04:41:58;16.30;99.90
48264;DHT22;34086;51.076;13.722;2023-10-13T04:43:11;16.30;99.90
48264;DHT22;34086;51.076;13.722;2023-10-13T04:44:33;16.30;99.90
48264;DHT22;34086;51.076;13.722;2023-10-13T04:45:49;16.30;99.90
48264;DHT22;34086;51.076;13.722;2023-10-13T04:46:56;16.30;99.90
48264;DHT22;34086;51.076;13.722;2023-10-13T04:48:00;16.30;99.90
48264;DHT22;34086;51.076;13.722;2023-10-13T04:49:21;16.20;99.90
48264;DHT22;34086;51.076;13.722;2023-10-13T04:50:36;16.30;99.90
48264;DHT22;34086;51.076;13.722;2023-10-13T04:51:44;16.20;99.90
48264;DHT22;34086;51.076;13.722;2023-10-13T04:52:59;16.20;99.90
48264;DHT22;34086;51.076;13.722;2023-10-13T04:54:02;16.20;99.90
48264;DHT22;34086;51.076;13.722;2023-10-13T04:55:13;16.20;99.90
48264;DHT22;34086;51.076;13.722;2023-10-13T04:56:18;16.20;99.90
48264;DHT22;34086;51.076;13.722;2023-10-13T04:57:37;16.20;99.90
48264;DHT22;34086;51.076;13.722;2023-10-13T04:58:49;16.20;99.90
48264;DHT22;34086;51.076;13.722;2023-10-13T05:00:09;16.20;99.90
48264;DHT22;34086;51.076;13.722;2023-10-13T05:01:10;16.20;99.90
48264;DHT22;34086;51.076;13.722;2023-10-13T05:02:26;16.30;99.90
48264;DHT22;34086;51.076;13.722;2023-10-13T05:03:36;16.20;99.90
48264;DHT22;34086;51.076;13.722;2023-10-13T05:04:55;16.20;99.90
48264;DHT22;34086;51.076;13.722;2023-10-13T05:06:11;16.20;99.90
48264;DHT22;34086;51.076;13.722;2023-10-13T05:07:32;16.20;99.90
48264;DHT22;34086;51.076;13.722;2023-10-13T05:08:51;16.20;99.90
48264;DHT22;34086;51.076;13.722;2023-10-13T05:10:11;16.20;99.90
48264;DHT22;34086;51.076;13.722;2023-10-13T05:11:30;16.20;99.90
48264;DHT22;34086;51.076;13.722;2023-10-13T05:12:57;16.20;99.90
48264;DHT22;34086;51.076;13.722;2023-10-13T05:14:16;16.20;99.90
48264;DHT22;34086;51.076;13.722;2023-10-13T05:15:43;16.20;99.90
48264;DHT22;34086;51.076;13.722;2023-10-13T05:17:02;16.20;99.90
48264;DHT22;34086;51.076;13.722;2023-10-13T05:18:21;16.20;99.90
48264;DHT22;34086;51.076;13.722;2023-10-13T05:19:41;16.20;99.90
48264;DHT22;34086;51.076;13.722;2023-10-13T05:21:00;16.20;99.90
48264;DHT22;34086;51.076;13.722;2023-10-13T05:22:19;16.20;99.90
48264;DHT22;34086;51.076;13.722;2023-10-13T05:23:39;16.20;99.90
48264;DHT22;34086;51.076;13.722;2023-10-13T05:24:58;16.20;99.90
48264;DHT22;34086;51.076;13.722;2023-10-13T05:26:17;16.20;99.90
48264;DHT22;34086;51.076;13.722;2023-10-13T05:27:37;16.20;99.90
48264;DHT22;34086;51.076;13.722;2023-10-13T05:28:56;16.10;99.90
48264;DHT22;34086;51.076;13.722;2023-10-13T05:30:15;16.20;99.90
48264;DHT22;34086;51.076;13.722;2023-10-13T05:31:35;16.10;99.90
48264;DHT22;34086;51.076;13.722;2023-10-13T05:32:54;16.10;99.90
48264;DHT22;34086;51.076;13.722;2023-10-13T05:34:14;16.10;99.90
48264;DHT22;34086;51.076;13.722;2023-10-13T05:35:33;16.10;99.90
48264;DHT22;34086;51.076;13.722;2023-10-13T05:36:52;16.10;99.90
48264;DHT22;34086;51.076;13.722;2023-10-13T05:38:11;16.10;99.90
48264;DHT22;34086;51.076;13.722;2023-10-13T05:39:31;16.10;99.90
48264;DHT22;34086;51.076;13.722;2023-10-13T05:40:57;16.10;99.90
48264;DHT22;34086;51.076;13.722;2023-10-13T05:42:17;16.10;99.90
48264;DHT22;34086;51.076;13.722;2023-10-13T05:43:36;16.20;99.90
48264;DHT22;34086;51.076;13.722;2023-10-13T05:44:55;16.20;99.90
48264;DHT22;34086;51.076;13.722;2023-10-13T05:46:08;16.20;99.90
48264;DHT22;34086;51.076;13.722;2023-10-13T05:47:35;16.20;99.90
48264;DHT22;34086;51.076;13.722;2023-10-13T05:48:42;16.20;99.90
48264;DHT22;34086;51.076;13.722;2023-10-13T05:49:58;16.20;99.90
48264;DHT22;34086;51.076;13.722;2023-10-13T05:51:17;16.20;99.90
48264;DHT22;34086;51.076;13.722;2023-10-13T05:52:45;16.20;99.90
48264;DHT22;34086;51.076;13.722;2023-10-13T05:53:54;16.30;99.90
48264;DHT22;34086;51.076;13.722;2023-10-13T05:55:13;16.30;99.90
48264;DHT22;34086;51.076;13.722;2023-10-13T05:56:34;16.30;99.90
48264;DHT22;34086;51.076;13.722;2023-10-13T05:57:53;16.30;99.90
48264;DHT22;34086;51.076;13.722;2023-10-13T05:59:13;16.30;99.90
48264;DHT22;34086;51.076;13.722;2023-10-13T06:00:38;16.40;99.90
48264;DHT22;34086;51.076;13.722;2023-10-13T06:01:57;16.40;99.90
48264;DHT22;34086;51.076;13.722;2023-10-13T06:03:17;16.40;99.90
48264;DHT22;34086;51.076;13.722;2023-10-13T06:04:36;16.40;99.90
48264;DHT22;34086;51.076;13.722;2023-10-13T06:05:55;16.40;99.90
48264;DHT22;34086;51.076;13.722;2023-10-13T06:07:15;16.50;99.90
48264;DHT22;34086;51.076;13.722;2023-10-13T06:08:34;16.50;99.90
48264;DHT22;34086;51.076;13.722;2023-10-13T06:09:53;16.50;99.90
48264;DHT22;34086;51.076;13.722;2023-10-13T06:11:23;16.60;99.90
48264;DHT22;34086;51.076;13.722;2023-10-13T06:12:43;16.60;99.90
48264;DHT22;34086;51.076;13.722;2023-10-13T06:14:02;16.60;99.90
48264;DHT22;34086;51.076;13.722;2023-10-13T06:15:22;16.60;99.90
48264;DHT22;34086;51.076;13.722;2023-10-13T06:16:41;16.70;99.90
48264;DHT22;34086;51.076;13.722;2023-10-13T06:18:00;16.70;99.90
48264;DHT22;34086;51.076;13.722;2023-10-13T06:19:20;16.70;99.90
48264;DHT22;34086;51.076;13.722;2023-10-13T06:20:39;16.70;99.90
48264;DHT22;34086;51.076;13.722;2023-10-13T06:21:58;16.80;99.90
48264;DHT22;34086;51.076;13.722;2023-10-13T06:23:18;16.80;99.90
48264;DHT22;34086;51.076;13.722;2023-10-13T06:24:37;16.80;99.90
48264;DHT22;34086;51.076;13.722;2023-10-13T06:25:56;16.80;99.90
48264;DHT22;34086;51.076;13.722;2023-10-13T06:27:16;16.80;99.90
48264;DHT22;34086;51.076;13.722;2023-10-13T06:28:35;16.90;99.90
48264;DHT22;34086;51.076;13.722;2023-10-13T06:29:42;16.90;99.90
48264;DHT22;34086;51.076;13.722;2023-10-13T06:30:59;16.90;99.90
48264;DHT22;34086;51.076;13.722;2023-10-13T06:32:01;16.90;99.90
48264;DHT22;34086;51.076;13.722;2023-10-13T06:33:02;16.90;99.90
48264;DHT22;34086;51.076;13.722;2023-10-13T06:34:04;16.90;99.90
48264;DHT22;34086;51.076;13.722;2023-10-13T06:35:06;16.90;99.90
48264;DHT22;34086;51.076;13.722;2023-10-13T06:36:19;16.90;99.90
48264;DHT22;34086;51.076;13.722;2023-10-13T06:37:19;16.90;99.90
48264;DHT22;34086;51.076;13.722;2023-10-13T06:38:24;16.90;99.90
48264;DHT22;34086;51.076;13.722;2023-10-13T06:39:24;16.90;99.90
48264;DHT22;34086;51.076;13.722;2023-10-13T06:40:37;16.90;99.90
48264;DHT22;34086;51.076;13.722;2023-10-13T06:41:39;16.90;99.90
48264;DHT22;34086;51.076;13.722;2023-10-13T06:42:42;17.00;99.90
48264;DHT22;34086;51.076;13.722;2023-10-13T06:43:43;17.00;99.90
48264;DHT22;34086;51.076;13.722;2023-10-13T06:44:43;17.00;99.90
48264;DHT22;34086;51.076;13.722;2023-10-13T06:45:48;17.00;99.90
48264;DHT22;34086;51.076;13.722;2023-10-13T06:47:00;17.00;99.90
48264;DHT22;34086;51.076;13.722;2023-10-13T06:48:05;17.00;99.90
48264;DHT22;34086;51.076;13.722;2023-10-13T06:49:06;17.10;99.90
48264;DHT22;34086;51.076;13.722;2023-10-13T06:50:13;17.10;99.90
48264;DHT22;34086;51.076;13.722;2023-10-13T06:51:16;17.20;99.90
48264;DHT22;34086;51.076;13.722;2023-10-13T06:52:22;17.20;99.90
48264;DHT22;34086;51.076;13.722;2023-10-13T06:53:23;17.20;99.90
48264;DHT22;34086;51.076;13.722;2023-10-13T06:54:25;17.20;99.90
48264;DHT22;34086;51.076;13.722;2023-10-13T06:55:25;17.20;99.90
48264;DHT22;34086;51.076;13.722;2023-10-13T06:56:35;17.20;99.90
48264;DHT22;34086;51.076;13.722;2023-10-13T06:57:40;17.30;99.90
48264;DHT22;34086;51.076;13.722;2023-10-13T06:58:44;17.20;99.90
48264;DHT22;34086;51.076;13.722;2023-10-13T06:59:47;17.20;99.90
48264;DHT22;34086;51.076;13.722;2023-10-13T07:00:48;17.30;99.90
48264;DHT22;34086;51.076;13.722;2023-10-13T07:01:58;17.30;99.90